Time;durP1;ratioP1;P1;durP2;ratioP2;P2;SDS_P1;SDS_P2;PMS_P1;PMS_P2;Temp;Humidity;BMP_temperature;BMP_pressure;BME280_temperature;BME280_humidity;BME280_pressure;Samples;Min_cycle;Max_cycle;Signal;HPM_P1;HPM_P2
2023/09/25 00:00:59;;;;;;;4.53;2.00;;;16.10;68.90;;;;;;5043514;28;20051;-62
2023/09/25 00:03:25;;;;;;;5.93;2.10;;;16.10;68.90;;;;;;5024589;28;20041;-62
2023/09/25 00:05:51;;;;;;;5.85;2.10;;;16.00;68.70;;;;;;5026081;28;20038;-62
2023/09/25 00:08:16;;;;;;;7.35;2.25;;;16.00;68.80;;;;;;5030165;28;20029;-62
2023/09/25 00:10:42;;;;;;;6.18;2.00;;;16.00;68.80;;;;;;5022848;28;20026;-63
2023/09/25 00:13:08;;;;;;;4.68;1.75;;;16.00;68.80;;;;;;5027331;28;20438;-62
2023/09/25 00:15:34;;;;;;;3.95;1.50;;;15.90;68.70;;;;;;5030197;28;20417;-62
2023/09/25 00:18:00;;;;;;;4.22;1.67;;;15.90;68.70;;;;;;5044298;28;20029;-62
2023/09/25 00:20:26;;;;;;;5.30;2.00;;;15.90;68.70;;;;;;5023584;28;20048;-62
2023/09/25 00:22:52;;;;;;;5.93;2.13;;;15.90;68.80;;;;;;5028421;28;20047;-62
2023/09/25 00:25:22;;;;;;;5.03;2.13;;;15.90;68.70;;;;;;5030736;28;20033;-62
2023/09/25 00:27:48;;;;;;;4.57;1.88;;;15.90;68.70;;;;;;5025926;28;20057;-62
2023/09/25 00:30:14;;;;;;;5.63;1.90;;;15.90;68.70;;;;;;5045628;28;20052;-62
2023/09/25 00:32:40;;;;;;;5.45;2.00;;;15.80;68.60;;;;;;5023737;28;20029;-62
2023/09/25 00:35:10;;;;;;;5.68;1.80;;;15.80;68.60;;;;;;5044613;28;20083;-62
2023/09/25 00:37:37;;;;;;;5.03;2.05;;;15.80;68.70;;;;;;5028987;28;20367;-62
2023/09/25 00:40:13;;;;;;;5.72;2.03;;;15.80;68.60;;;;;;5028305;28;20021;-62
2023/09/25 00:42:45;;;;;;;7.00;2.20;;;15.80;68.60;;;;;;5029843;28;20108;-62
2023/09/25 00:45:11;;;;;;;5.70;1.95;;;15.80;68.50;;;;;;5019923;28;20025;-62
2023/09/25 00:47:38;;;;;;;6.47;1.92;;;15.80;68.60;;;;;;5028424;28;20027;-62
2023/09/25 00:50:05;;;;;;;4.78;1.75;;;15.80;68.50;;;;;;5029422;28;20036;-62
2023/09/25 00:52:36;;;;;;;5.80;2.03;;;15.80;68.50;;;;;;5028266;28;20366;-62
2023/09/25 00:55:04;;;;;;;7.23;2.20;;;15.80;68.40;;;;;;5043507;28;20476;-63
2023/09/25 00:57:34;;;;;;;6.45;2.10;;;15.80;68.40;;;;;;5042915;28;20812;-62
2023/09/25 01:00:04;;;;;;;6.72;1.92;;;15.80;68.30;;;;;;5029972;28;20029;-62
2023/09/25 01:02:31;;;;;;;5.63;2.08;;;15.80;68.20;;;;;;5043536;28;20040;-62
2023/09/25 01:05:01;;;;;;;4.85;1.60;;;15.80;68.70;;;;;;5025603;28;20089;-62
2023/09/25 01:07:28;;;;;;;4.53;1.90;;;15.80;68.00;;;;;;5020433;28;20072;-62
2023/09/25 01:10:06;;;;;;;4.05;1.88;;;15.80;68.00;;;;;;5024196;28;20092;-63
2023/09/25 01:12:33;;;;;;;4.43;2.00;;;15.80;67.90;;;;;;5042845;28;20341;-62
2023/09/25 01:14:58;;;;;;;6.10;1.90;;;15.80;68.00;;;;;;5029016;28;20374;-62
2023/09/25 01:17:25;;;;;;;4.35;1.80;;;15.70;67.90;;;;;;5029081;28;20036;-62
2023/09/25 01:19:51;;;;;;;4.82;2.13;;;15.70;67.90;;;;;;5029233;28;20072;-63
2023/09/25 01:22:17;;;;;;;4.13;1.73;;;15.80;67.80;;;;;;5026719;28;20068;-62
2023/09/25 01:24:42;;;;;;;4.70;1.80;;;15.80;67.70;;;;;;5029268;28;20061;-62
2023/09/25 01:27:08;;;;;;;5.75;2.05;;;15.70;67.70;;;;;;5029424;28;20399;-62
2023/09/25 01:29:34;;;;;;;6.40;1.88;;;15.80;67.80;;;;;;5043899;28;20029;-62
2023/09/25 01:31:59;;;;;;;5.25;1.67;;;15.70;67.70;;;;;;5040444;28;20043;-62
2023/09/25 01:34:25;;;;;;;6.47;2.10;;;15.70;67.70;;;;;;5029264;28;20446;-62
2023/09/25 01:36:51;;;;;;;4.60;1.92;;;15.70;67.80;;;;;;5038276;28;20030;-62
2023/09/25 01:39:17;;;;;;;5.15;1.88;;;15.70;67.70;;;;;;5027893;28;20033;-62
2023/09/25 01:41:43;;;;;;;5.63;2.03;;;15.70;67.80;;;;;;5026004;28;20112;-62
2023/09/25 01:44:08;;;;;;;5.07;2.15;;;15.60;67.70;;;;;;5042089;28;20112;-62
2023/09/25 01:46:34;;;;;;;5.20;2.05;;;15.60;67.80;;;;;;5025243;28;20033;-62
2023/09/25 01:49:00;;;;;;;4.43;1.80;;;15.60;67.70;;;;;;5026959;28;20028;-62
2023/09/25 01:51:26;;;;;;;6.95;1.83;;;15.60;67.60;;;;;;5024025;28;20034;-62
2023/09/25 01:53:51;;;;;;;4.68;1.83;;;15.60;67.60;;;;;;5020698;28;20033;-62
2023/09/25 01:56:17;;;;;;;5.18;1.90;;;15.60;67.60;;;;;;5028115;28;20025;-62
2023/09/25 01:58:44;;;;;;;4.75;1.80;;;15.60;67.60;;;;;;5019491;28;20030;-62
2023/09/25 02:01:10;;;;;;;4.03;1.70;;;15.60;67.60;;;;;;5025725;28;20014;-61
2023/09/25 02:03:36;;;;;;;5.10;2.20;;;15.60;67.70;;;;;;5028773;28;20351;-62
2023/09/25 02:06:03;;;;;;;5.20;1.90;;;15.60;67.70;;;;;;5025989;28;20430;-62
2023/09/25 02:08:29;;;;;;;5.45;1.90;;;15.60;67.60;;;;;;5019425;28;20112;-61
2023/09/25 02:10:55;;;;;;;5.90;2.08;;;15.60;67.60;;;;;;5032469;28;20091;-61
2023/09/25 02:13:21;;;;;;;5.13;2.03;;;15.60;67.70;;;;;;5032899;28;20052;-62
2023/09/25 02:15:47;;;;;;;5.47;2.10;;;15.50;67.80;;;;;;5030305;28;20034;-61
2023/09/25 02:18:13;;;;;;;5.43;2.38;;;15.50;67.90;;;;;;5047092;28;20130;-62
2023/09/25 02:20:39;;;;;;;4.78;2.00;;;15.50;68.10;;;;;;5032798;28;20434;-62
2023/09/25 02:23:06;;;;;;;4.78;1.80;;;15.50;68.10;;;;;;5029331;28;20033;-63
2023/09/25 02:25:32;;;;;;;5.18;1.90;;;15.50;68.20;;;;;;5028304;28;20026;-65
2023/09/25 02:27:57;;;;;;;5.47;2.50;;;15.40;68.20;;;;;;5032486;28;20343;-65
2023/09/25 02:30:23;;;;;;;4.95;1.75;;;15.40;68.40;;;;;;5046202;28;20112;-65
2023/09/25 02:32:49;;;;;;;5.18;1.88;;;15.40;68.40;;;;;;5029920;28;20052;-65
2023/09/25 02:35:15;;;;;;;4.97;2.05;;;15.40;68.40;;;;;;5047619;28;20553;-64
2023/09/25 02:37:41;;;;;;;4.72;2.05;;;15.40;68.40;;;;;;5019670;28;20033;-65
2023/09/25 02:40:09;;;;;;;5.82;2.00;;;15.40;68.60;;;;;;5044981;28;20055;-64
2023/09/25 02:42:35;;;;;;;4.90;2.10;;;15.30;68.60;;;;;;5048411;28;20483;-65
2023/09/25 02:45:01;;;;;;;6.75;2.30;;;15.30;68.80;;;;;;5025134;28;20037;-65
2023/09/25 02:47:27;;;;;;;4.68;1.88;;;15.30;68.80;;;;;;5031106;28;20087;-65
2023/09/25 02:49:54;;;;;;;7.10;2.13;;;15.30;68.90;;;;;;5031575;28;20033;-65
2023/09/25 02:52:19;;;;;;;6.22;2.15;;;15.30;68.80;;;;;;5033336;28;20064;-65
2023/09/25 02:54:45;;;;;;;6.25;2.45;;;15.30;68.70;;;;;;5030424;28;20037;-65
2023/09/25 02:57:11;;;;;;;7.70;2.45;;;15.30;68.80;;;;;;5007793;28;20120;-65
2023/09/25 02:59:37;;;;;;;6.55;2.10;;;15.30;68.80;;;;;;5024765;28;20117;-65
2023/09/25 03:02:03;;;;;;;6.22;2.38;;;15.30;68.90;;;;;;5031392;28;20351;-65
2023/09/25 03:04:28;;;;;;;5.97;2.10;;;15.30;69.00;;;;;;5032557;28;20033;-65
2023/09/25 03:06:56;;;;;;;5.85;2.25;;;15.30;69.00;;;;;;5027323;28;20080;-65
2023/09/25 03:09:22;;;;;;;5.43;2.17;;;15.20;69.00;;;;;;5030838;28;20029;-65
2023/09/25 03:11:48;;;;;;;5.32;1.98;;;15.20;69.00;;;;;;5030853;28;20034;-65
2023/09/25 03:14:14;;;;;;;5.28;2.10;;;15.20;69.20;;;;;;5043667;28;20141;-65
2023/09/25 03:16:41;;;;;;;5.95;2.08;;;15.20;69.20;;;;;;5036557;28;20158;-65
2023/09/25 03:19:06;;;;;;;5.68;2.10;;;15.20;69.30;;;;;;5034993;28;20415;-65
2023/09/25 03:21:33;;;;;;;4.68;1.83;;;15.10;69.30;;;;;;5016141;28;20025;-65
2023/09/25 03:23:59;;;;;;;5.50;1.88;;;15.20;69.40;;;;;;5043402;28;20028;-65
2023/09/25 03:26:25;;;;;;;4.28;1.90;;;15.20;69.40;;;;;;5031848;28;20431;-65
2023/09/25 03:28:51;;;;;;;4.70;1.70;;;15.20;69.40;;;;;;5026410;28;20033;-65
2023/09/25 03:31:17;;;;;;;4.50;2.08;;;15.10;69.30;;;;;;5045468;28;20025;-65
2023/09/25 03:33:46;;;;;;;5.00;1.92;;;15.20;69.40;;;;;;5029329;28;20034;-65
2023/09/25 03:36:12;;;;;;;5.40;2.10;;;15.20;69.40;;;;;;5043419;28;20079;-65
2023/09/25 03:38:38;;;;;;;5.45;2.03;;;15.20;69.30;;;;;;5034004;28;20480;-65
2023/09/25 03:41:05;;;;;;;4.88;2.00;;;15.20;69.40;;;;;;5028153;28;20060;-65
2023/09/25 03:43:31;;;;;;;6.75;2.17;;;15.20;69.40;;;;;;5032810;28;20120;-65
2023/09/25 03:45:57;;;;;;;5.47;1.90;;;15.20;69.40;;;;;;5033056;28;20418;-65
2023/09/25 03:48:23;;;;;;;6.40;2.30;;;15.20;69.30;;;;;;5044571;28;20043;-65
2023/09/25 03:50:49;;;;;;;4.57;2.00;;;15.20;69.20;;;;;;5042736;28;20022;-65
2023/09/25 03:53:15;;;;;;;5.15;2.00;;;15.20;69.20;;;;;;5023660;28;20095;-65
2023/09/25 03:55:41;;;;;;;5.18;1.80;;;15.20;69.20;;;;;;5028622;28;20021;-65
2023/09/25 03:58:07;;;;;;;5.03;2.28;;;15.30;69.30;;;;;;5031025;28;20040;-65
2023/09/25 04:00:33;;;;;;;5.82;2.00;;;15.20;69.30;;;;;;5030309;28;20014;-65
2023/09/25 04:02:58;;;;;;;4.38;1.83;;;15.20;69.30;;;;;;5040574;28;20620;-65
2023/09/25 04:05:24;;;;;;;5.60;1.90;;;15.20;69.30;;;;;;5031957;28;20044;-65
2023/09/25 04:07:50;;;;;;;4.65;2.13;;;15.30;69.40;;;;;;5027123;28;20025;-65
2023/09/25 04:10:17;;;;;;;4.03;1.75;;;15.20;69.40;;;;;;5031151;28;20148;-65
2023/09/25 04:12:42;;;;;;;5.30;2.10;;;15.20;69.50;;;;;;5029224;28;20041;-65
2023/09/25 04:15:14;;;;;;;5.90;1.80;;;15.20;69.60;;;;;;5031205;28;20079;-65
2023/09/25 04:17:43;;;;;;;4.65;1.92;;;15.20;70.40;;;;;;5043837;28;20025;-64
2023/09/25 04:20:17;;;;;;;6.43;2.38;;;15.20;69.70;;;;;;5029521;28;20032;-64
2023/09/25 04:22:45;;;;;;;4.60;2.10;;;15.20;69.60;;;;;;5041466;28;20347;-65
2023/09/25 04:25:18;;;;;;;6.22;2.17;;;15.20;69.60;;;;;;5028569;28;20053;-64
2023/09/25 04:27:48;;;;;;;6.38;2.05;;;15.20;69.50;;;;;;5029099;28;20435;-64
2023/09/25 04:30:15;;;;;;;5.90;2.15;;;15.20;69.60;;;;;;5028558;28;20470;-65
2023/09/25 04:32:49;;;;;;;4.10;1.80;;;15.20;69.70;;;;;;5028626;28;20032;-64
2023/09/25 04:35:15;;;;;;;5.72;2.22;;;15.20;69.60;;;;;;5023662;28;21616;-65
2023/09/25 04:37:42;;;;;;;5.38;2.10;;;15.20;69.70;;;;;;5027113;28;20063;-65
2023/09/25 04:40:22;;;;;;;5.78;2.10;;;15.20;69.70;;;;;;5028132;28;20053;-65
2023/09/25 04:42:52;;;;;;;5.10;2.08;;;15.20;69.80;;;;;;5027992;28;20021;-64
2023/09/25 04:45:19;;;;;;;5.05;2.15;;;15.20;69.90;;;;;;5029655;28;20370;-65
2023/09/25 04:47:51;;;;;;;5.82;2.20;;;15.10;69.90;;;;;;5028571;28;20377;-65
2023/09/25 04:50:17;;;;;;;5.15;1.85;;;15.10;70.00;;;;;;5022569;28;20109;-65
2023/09/25 04:52:46;;;;;;;6.90;2.10;;;15.10;70.00;;;;;;5029405;28;20522;-65
2023/09/25 04:55:13;;;;;;;5.65;2.00;;;15.10;70.10;;;;;;5028534;28;20526;-65
2023/09/25 04:57:40;;;;;;;4.10;1.88;;;15.10;70.10;;;;;;5043066;28;20344;-64
2023/09/25 05:02:46;;;;;;;6.57;2.28;;;15.10;70.10;;;;;;5022889;28;20080;-65
2023/09/25 05:05:13;;;;;;;5.93;2.25;;;15.10;70.20;;;;;;5027932;28;20112;-65
2023/09/25 05:07:44;;;;;;;5.13;2.03;;;15.10;70.30;;;;;;5029737;28;20031;-65
2023/09/25 05:10:12;;;;;;;7.68;2.28;;;15.10;70.40;;;;;;5029329;28;20021;-65
2023/09/25 05:12:42;;;;;;;5.03;2.17;;;15.00;70.40;;;;;;5017972;28;20374;-65
2023/09/25 05:15:08;;;;;;;7.20;2.38;;;15.00;70.50;;;;;;5029156;28;20105;-65
2023/09/25 05:17:36;;;;;;;5.40;2.17;;;15.00;70.60;;;;;;5024839;28;20363;-65
2023/09/25 05:20:10;;;;;;;5.82;2.15;;;15.00;70.60;;;;;;5044553;28;20413;-65
2023/09/25 05:22:40;;;;;;;6.63;2.28;;;15.00;70.70;;;;;;5029561;28;20446;-65
2023/09/25 05:25:08;;;;;;;5.93;1.92;;;14.90;70.80;;;;;;5028271;28;20025;-66
2023/09/25 05:27:35;;;;;;;6.50;2.10;;;14.90;70.80;;;;;;5028212;28;20041;-65
2023/09/25 05:30:02;;;;;;;5.75;2.28;;;14.90;70.90;;;;;;5029494;28;20334;-65
2023/09/25 05:32:28;;;;;;;5.72;2.55;;;14.90;70.90;;;;;;5027783;28;20103;-65
2023/09/25 05:34:54;;;;;;;5.65;2.28;;;14.90;70.90;;;;;;5029450;28;20125;-65
2023/09/25 05:37:20;;;;;;;6.28;2.20;;;14.90;71.00;;;;;;5027137;28;20045;-65
2023/09/25 05:39:45;;;;;;;4.72;1.90;;;14.90;70.90;;;;;;5028930;28;20037;-65
2023/09/25 05:42:12;;;;;;;5.97;2.55;;;14.90;70.80;;;;;;5028996;28;20025;-65
2023/09/25 05:44:38;;;;;;;5.78;2.10;;;14.90;70.60;;;;;;5026825;28;20025;-65
2023/09/25 05:47:03;;;;;;;6.78;2.55;;;15.00;70.40;;;;;;5029335;28;20026;-64
2023/09/25 05:49:29;;;;;;;6.63;1.90;;;14.90;70.20;;;;;;5025929;28;20403;-65
2023/09/25 05:51:55;;;;;;;6.35;2.40;;;15.00;70.20;;;;;;5040886;28;20040;-65
2023/09/25 05:54:21;;;;;;;5.45;1.85;;;15.00;70.10;;;;;;5027406;28;20138;-64
2023/09/25 05:56:47;;;;;;;6.55;2.05;;;15.00;70.00;;;;;;5028512;28;20091;-64
2023/09/25 05:59:14;;;;;;;7.68;2.10;;;15.00;69.90;;;;;;5027720;28;20335;-65
2023/09/25 06:01:39;;;;;;;6.50;2.00;;;15.10;69.90;;;;;;5042439;28;20116;-64
2023/09/25 06:04:05;;;;;;;7.75;2.22;;;15.10;69.70;;;;;;5029341;28;20394;-64
2023/09/25 06:06:33;;;;;;;4.72;2.03;;;15.10;69.60;;;;;;5024716;28;20133;-64
2023/09/25 06:08:59;;;;;;;4.60;2.13;;;15.20;69.50;;;;;;5026754;28;20064;-65
2023/09/25 06:11:25;;;;;;;6.63;2.50;;;15.20;69.40;;;;;;5028548;28;20029;-65
2023/09/25 06:13:51;;;;;;;5.32;2.10;;;15.20;69.20;;;;;;5038315;28;20045;-65
2023/09/25 06:16:16;;;;;;;6.55;2.00;;;15.20;69.00;;;;;;5027886;28;20057;-65
2023/09/25 06:18:43;;;;;;;6.25;2.15;;;15.30;68.90;;;;;;5027725;28;20026;-65
2023/09/25 06:21:12;;;;;;;5.72;2.20;;;15.30;69.00;;;;;;5023131;28;20029;-66
2023/09/25 06:23:39;;;;;;;6.13;2.30;;;15.30;69.10;;;;;;5046047;28;20025;-67
2023/09/25 06:26:06;;;;;;;5.88;2.13;;;15.30;69.10;;;;;;5027017;28;20018;-66
2023/09/25 06:28:32;;;;;;;8.25;2.30;;;15.40;69.10;;;;;;5023853;28;20026;-66
2023/09/25 06:30:59;;;;;;;6.38;2.75;;;15.40;68.90;;;;;;5029642;28;20044;-67
2023/09/25 06:33:25;;;;;;;5.15;2.28;;;15.40;68.70;;;;;;5028607;28;20109;-67
2023/09/25 06:35:52;;;;;;;5.65;2.10;;;15.50;68.70;;;;;;5027336;28;20114;-66
2023/09/25 06:38:19;;;;;;;5.32;2.08;;;15.50;68.50;;;;;;5025544;28;20021;-67
2023/09/25 06:40:46;;;;;;;5.13;2.28;;;15.50;68.50;;;;;;5027850;28;20721;-66
2023/09/25 06:43:12;;;;;;;4.60;1.98;;;15.60;68.50;;;;;;5023396;28;20021;-68
2023/09/25 06:45:41;;;;;;;4.40;1.90;;;15.60;68.50;;;;;;5026620;28;21722;-67
2023/09/25 06:48:07;;;;;;;6.13;2.30;;;15.60;68.30;;;;;;5030849;28;20029;-67
2023/09/25 06:50:33;;;;;;;5.93;2.33;;;15.70;68.20;;;;;;5023603;28;20076;-67
2023/09/25 06:52:59;;;;;;;8.07;2.28;;;15.70;68.00;;;;;;5036480;28;20891;-67
2023/09/25 06:55:25;;;;;;;5.68;2.05;;;15.80;68.00;;;;;;5033702;28;20075;-67
2023/09/25 06:57:51;;;;;;;4.88;2.05;;;15.80;67.90;;;;;;5032355;28;20134;-67
2023/09/25 07:00:18;;;;;;;5.75;1.95;;;15.90;67.80;;;;;;5047045;28;20108;-66
2023/09/25 07:02:44;;;;;;;6.68;2.28;;;15.90;67.70;;;;;;5031318;28;20029;-67
2023/09/25 07:05:10;;;;;;;5.20;2.15;;;16.00;67.60;;;;;;5032498;28;20017;-67
2023/09/25 07:07:36;;;;;;;4.97;2.00;;;16.10;67.50;;;;;;5031645;28;20343;-67
2023/09/25 07:10:05;;;;;;;5.32;2.00;;;16.20;67.30;;;;;;5048352;28;20127;-66
2023/09/25 07:12:31;;;;;;;5.95;2.15;;;16.30;67.10;;;;;;5047383;28;20041;-67
2023/09/25 07:14:58;;;;;;;6.22;2.30;;;16.30;67.00;;;;;;5032456;28;20355;-66
2023/09/25 07:17:24;;;;;;;6.32;2.15;;;16.40;66.90;;;;;;5031398;28;20030;-67
2023/09/25 07:19:55;;;;;;;5.35;2.50;;;16.40;66.60;;;;;;5030130;28;20048;-66
2023/09/25 07:22:21;;;;;;;5.00;2.30;;;16.50;66.50;;;;;;5045589;28;20021;-66
2023/09/25 07:24:47;;;;;;;5.22;2.28;;;16.50;66.40;;;;;;5034106;28;20096;-67
2023/09/25 07:27:14;;;;;;;5.30;2.30;;;16.60;66.50;;;;;;5029414;28;20033;-68
2023/09/25 07:29:44;;;;;;;5.47;2.17;;;16.60;66.30;;;;;;5049936;28;20029;-67
2023/09/25 07:32:11;;;;;;;6.40;2.10;;;16.70;66.30;;;;;;5033361;28;20028;-67
2023/09/25 07:34:38;;;;;;;5.50;2.15;;;16.70;66.20;;;;;;5031242;28;20617;-67
2023/09/25 07:37:05;;;;;;;5.88;2.30;;;16.70;65.90;;;;;;5031313;28;20030;-68
2023/09/25 07:39:33;;;;;;;6.22;2.10;;;16.80;65.80;;;;;;5030175;28;20033;-68
2023/09/25 07:41:59;;;;;;;4.90;2.20;;;16.80;65.50;;;;;;5030012;28;20034;-68
2023/09/25 07:44:28;;;;;;;4.05;1.88;;;16.90;66.00;;;;;;5031323;28;20282;-67
2023/09/25 07:46:56;;;;;;;5.93;2.28;;;16.90;65.20;;;;;;5031058;28;20025;-68
2023/09/25 07:49:23;;;;;;;5.38;2.13;;;17.00;64.90;;;;;;5044458;28;20430;-68
2023/09/25 07:51:51;;;;;;;4.80;1.90;;;17.10;64.70;;;;;;5031155;28;20036;-70
2023/09/25 07:54:17;;;;;;;4.47;1.70;;;17.20;64.50;;;;;;5026503;28;20029;-70
2023/09/25 07:56:44;;;;;;;6.20;2.08;;;17.30;64.30;;;;;;5027489;28;20117;-68
2023/09/25 07:59:10;;;;;;;5.65;2.13;;;17.30;63.90;;;;;;5028811;28;20033;-71
2023/09/25 08:01:39;;;;;;;6.53;1.90;;;17.40;63.60;;;;;;5030090;28;20171;-71
2023/09/25 08:04:05;;;;;;;5.47;2.17;;;17.60;63.40;;;;;;5030117;28;20025;-71
2023/09/25 08:06:31;;;;;;;4.70;1.65;;;17.70;63.30;;;;;;5030066;28;20057;-72
2023/09/25 08:08:57;;;;;;;5.63;2.08;;;17.90;62.90;;;;;;5034240;28;20026;-69
2023/09/25 08:11:24;;;;;;;4.68;1.90;;;18.00;62.40;;;;;;5032067;28;20538;-69
2023/09/25 08:13:50;;;;;;;6.38;2.00;;;18.20;62.30;;;;;;5026609;28;20042;-71
2023/09/25 08:16:18;;;;;;;6.28;2.00;;;18.30;61.90;;;;;;5028763;28;20112;-69
2023/09/25 08:18:44;;;;;;;4.88;1.83;;;18.40;61.30;;;;;;5036549;28;20064;-70
2023/09/25 08:21:10;;;;;;;5.65;2.33;;;18.40;61.00;;;;;;5028096;28;20042;-69
2023/09/25 08:23:36;;;;;;;5.20;2.13;;;18.60;61.10;;;;;;5045784;28;20083;-68
2023/09/25 08:26:05;;;;;;;5.72;2.25;;;18.70;60.70;;;;;;5031930;28;20021;-68
2023/09/25 08:28:34;;;;;;;5.20;1.88;;;18.80;60.40;;;;;;5030285;28;20362;-68
2023/09/25 08:31:00;;;;;;;5.35;2.10;;;19.00;60.20;;;;;;5030124;28;20037;-69
2023/09/25 08:33:26;;;;;;;4.70;1.70;;;19.10;60.00;;;;;;5047063;28;20084;-68
2023/09/25 08:35:52;;;;;;;5.68;1.90;;;19.20;59.80;;;;;;5030993;28;20029;-68
2023/09/25 08:38:18;;;;;;;4.93;1.70;;;19.30;59.70;;;;;;5031665;28;20040;-69
2023/09/25 08:40:50;;;;;;;3.60;1.60;;;19.40;59.60;;;;;;5029292;28;20112;-69
2023/09/25 08:43:16;;;;;;;6.35;2.20;;;19.40;59.20;;;;;;5042824;28;20178;-69
2023/09/25 08:45:43;;;;;;;4.13;1.80;;;19.50;59.30;;;;;;5030965;28;20017;-69
2023/09/25 08:48:10;;;;;;;4.32;1.67;;;19.60;59.00;;;;;;5031128;28;20036;-68
2023/09/25 08:50:37;;;;;;;4.60;1.73;;;19.60;58.90;;;;;;5022576;28;20120;-68
2023/09/25 08:53:03;;;;;;;4.57;1.92;;;19.70;58.80;;;;;;5029665;28;20116;-70
2023/09/25 08:55:29;;;;;;;5.25;1.92;;;19.90;58.80;;;;;;5031721;28;20038;-71
2023/09/25 08:57:55;;;;;;;5.43;1.80;;;20.10;58.50;;;;;;5030549;28;20120;-71
2023/09/25 09:00:24;;;;;;;5.45;1.75;;;20.30;58.00;;;;;;5030430;28;20036;-70
2023/09/25 09:02:50;;;;;;;5.20;1.60;;;20.40;57.70;;;;;;5030185;28;20096;-71
2023/09/25 09:05:16;;;;;;;7.32;2.28;;;20.50;57.30;;;;;;5033283;28;20128;-71
2023/09/25 09:08:06;;;;;;;4.07;1.67;;;20.60;57.00;;;;;;5033218;28;20025;-71
2023/09/25 09:10:33;;;;;;;4.63;1.70;;;20.70;56.60;;;;;;5034653;28;20327;-71
2023/09/25 09:12:59;;;;;;;5.07;1.90;;;20.80;56.50;;;;;;5032909;28;20064;-71
2023/09/25 09:15:28;;;;;;;5.68;1.90;;;21.00;56.30;;;;;;5033870;28;20108;-71
2023/09/25 09:17:55;;;;;;;4.63;1.60;;;21.10;56.00;;;;;;5034051;28;20414;-71
2023/09/25 09:20:37;;;;;;;4.72;1.90;;;21.10;55.80;;;;;;5034486;28;20463;-71
2023/09/25 09:23:03;;;;;;;5.80;1.80;;;21.20;55.20;;;;;;5032703;28;20101;-71
2023/09/25 09:25:32;;;;;;;4.65;1.92;;;21.30;55.40;;;;;;5034575;28;20021;-71
2023/09/25 09:27:59;;;;;;;8.07;1.80;;;21.30;55.00;;;;;;5033389;28;20030;-71
2023/09/25 09:30:25;;;;;;;6.25;1.70;;;21.30;54.90;;;;;;5034817;28;20051;-71
2023/09/25 09:32:51;;;;;;;5.03;1.65;;;21.40;54.80;;;;;;5033445;28;20477;-71
2023/09/25 09:35:19;;;;;;;5.60;1.88;;;21.40;54.60;;;;;;5033139;28;20439;-71
2023/09/25 09:37:48;;;;;;;6.10;1.75;;;21.60;54.10;;;;;;5033305;28;20029;-71
2023/09/25 09:40:15;;;;;;;5.82;2.10;;;21.60;54.10;;;;;;5033001;28;20071;-71
2023/09/25 09:42:43;;;;;;;5.05;2.05;;;21.70;53.90;;;;;;5047944;28;20071;-71
2023/09/25 09:45:09;;;;;;;5.40;2.05;;;21.70;53.90;;;;;;5033202;28;20052;-71
2023/09/25 09:47:43;;;;;;;5.00;1.90;;;21.70;54.00;;;;;;5034568;28;20167;-71
2023/09/25 09:50:10;;;;;;;4.75;1.95;;;21.80;53.80;;;;;;5033043;28;20040;-71
2023/09/25 09:52:38;;;;;;;4.15;1.83;;;21.80;53.50;;;;;;5049424;28;20076;-71
2023/09/25 09:55:07;;;;;;;5.40;1.88;;;21.90;53.50;;;;;;5032498;28;20026;-71
2023/09/25 09:57:33;;;;;;;5.47;2.10;;;21.80;53.40;;;;;;5033096;28;20036;-71
2023/09/25 10:00:00;;;;;;;4.53;1.67;;;21.80;53.60;;;;;;5031931;28;20095;-71
2023/09/25 10:02:28;;;;;;;5.70;2.08;;;21.90;53.50;;;;;;5033515;28;20033;-71
2023/09/25 10:04:57;;;;;;;5.05;1.60;;;21.90;53.10;;;;;;5020987;28;20022;-71
2023/09/25 10:07:23;;;;;;;5.32;1.77;;;21.80;53.30;;;;;;5031855;28;20044;-71
2023/09/25 10:10:05;;;;;;;4.28;1.70;;;21.90;53.60;;;;;;5033122;28;20113;-71
2023/09/25 10:12:47;;;;;;;5.22;1.63;;;21.90;53.50;;;;;;5033379;28;20038;-71
2023/09/25 10:15:18;;;;;;;5.30;1.80;;;22.00;53.10;;;;;;5032765;28;20037;-71
2023/09/25 10:17:46;;;;;;;4.03;1.80;;;22.00;53.20;;;;;;5018995;28;20039;-71
2023/09/25 10:20:28;;;;;;;4.05;1.70;;;22.00;53.20;;;;;;5033890;28;20096;-71
2023/09/25 10:22:58;;;;;;;3.58;1.40;;;22.10;53.10;;;;;;5031762;28;20108;-71
2023/09/25 10:25:24;;;;;;;4.78;1.88;;;22.10;53.00;;;;;;5049353;28;20152;-71
2023/09/25 10:27:52;;;;;;;4.72;1.88;;;22.10;53.00;;;;;;5034928;28;20123;-71
2023/09/25 10:30:18;;;;;;;4.45;1.95;;;22.10;52.90;;;;;;5036081;28;20025;-71
2023/09/25 10:32:55;;;;;;;5.40;2.00;;;22.10;52.50;;;;;;5035565;28;20029;-71
2023/09/25 10:35:43;;;;;;;5.47;1.77;;;22.10;52.40;;;;;;5053285;28;20120;-71
2023/09/25 10:38:09;;;;;;;6.07;2.13;;;22.10;52.20;;;;;;5037605;28;20067;-71
2023/09/25 10:40:38;;;;;;;4.32;1.90;;;22.10;52.50;;;;;;5038009;28;20025;-71
2023/09/25 10:43:05;;;;;;;5.30;1.52;;;22.20;52.40;;;;;;5037545;28;20087;-71
2023/09/25 10:45:31;;;;;;;5.85;2.20;;;22.30;52.30;;;;;;5048205;28;20032;-71
2023/09/25 10:47:57;;;;;;;5.50;1.95;;;22.30;52.40;;;;;;5037037;28;20040;-71
2023/09/25 10:50:23;;;;;;;4.43;1.98;;;22.40;52.50;;;;;;5034019;28;20025;-71
2023/09/25 10:52:48;;;;;;;6.22;2.13;;;22.40;52.60;;;;;;5045859;28;20026;-71
2023/09/25 10:55:14;;;;;;;5.50;1.85;;;22.50;52.30;;;;;;5036662;28;20018;-71
2023/09/25 10:57:40;;;;;;;4.72;1.90;;;22.40;52.00;;;;;;5031357;28;20025;-71
2023/09/25 11:00:15;;;;;;;5.57;1.88;;;22.50;52.30;;;;;;5037227;28;20030;-70
2023/09/25 11:02:44;;;;;;;5.30;1.95;;;22.50;52.40;;;;;;5052766;28;20044;-71
2023/09/25 11:05:11;;;;;;;6.57;2.10;;;22.50;52.40;;;;;;5036225;28;20045;-70
2023/09/25 11:07:37;;;;;;;3.58;1.58;;;22.50;52.50;;;;;;5036184;28;20025;-71
2023/09/25 11:10:04;;;;;;;5.93;2.33;;;22.60;52.80;;;;;;5049503;28;20029;-71
2023/09/25 11:12:33;;;;;;;8.50;2.40;;;22.60;52.50;;;;;;5036952;28;20422;-71
2023/09/25 11:14:59;;;;;;;8.90;2.35;;;22.60;52.20;;;;;;5032651;28;20044;-71
2023/09/25 11:17:26;;;;;;;8.18;2.35;;;22.50;52.20;;;;;;5050964;28;20128;-70
2023/09/25 11:19:52;;;;;;;5.50;2.20;;;22.50;52.10;;;;;;5034367;28;20362;-71
2023/09/25 11:22:24;;;;;;;5.78;2.33;;;22.50;52.30;;;;;;5035771;28;20022;-71
2023/09/25 11:24:58;;;;;;;6.05;2.25;;;22.50;52.50;;;;;;5034098;28;20029;-70
2023/09/25 11:27:24;;;;;;;5.15;2.00;;;22.40;52.50;;;;;;5024769;28;20021;-72
2023/09/25 11:29:51;;;;;;;6.28;2.47;;;22.40;53.40;;;;;;5031831;28;20036;-69
2023/09/25 11:32:17;;;;;;;6.30;2.35;;;22.40;52.80;;;;;;5030141;28;20072;-69
2023/09/25 11:34:43;;;;;;;6.82;2.20;;;22.40;52.60;;;;;;5030063;28;20021;-69
2023/09/25 11:37:22;;;;;;;5.80;2.28;;;22.50;52.50;;;;;;5031079;28;20061;-69
2023/09/25 11:39:48;;;;;;;5.22;2.10;;;22.50;52.20;;;;;;5032351;28;20076;-69
2023/09/25 11:42:15;;;;;;;6.82;2.35;;;22.50;52.50;;;;;;5031984;28;20160;-69
2023/09/25 11:44:40;;;;;;;6.80;2.10;;;22.60;52.50;;;;;;5031081;28;20972;-70
2023/09/25 11:47:06;;;;;;;5.80;2.08;;;22.60;52.40;;;;;;5029434;28;20101;-70
2023/09/25 11:49:32;;;;;;;5.97;2.08;;;22.60;52.30;;;;;;5028527;28;20454;-71
2023/09/25 11:51:58;;;;;;;9.77;2.35;;;22.70;52.30;;;;;;5031459;28;20392;-71
2023/09/25 11:54:24;;;;;;;6.28;2.22;;;22.70;52.20;;;;;;5030621;28;20095;-71
2023/09/25 11:56:50;;;;;;;5.50;2.10;;;22.70;52.30;;;;;;5044803;28;20469;-71
2023/09/25 11:59:16;;;;;;;5.20;1.77;;;22.70;52.20;;;;;;5029751;28;20053;-71
2023/09/25 12:01:42;;;;;;;5.90;2.22;;;22.80;52.20;;;;;;5030884;28;20101;-71
2023/09/25 12:04:09;;;;;;;5.20;2.00;;;22.80;52.10;;;;;;5022648;28;20472;-71
2023/09/25 12:06:35;;;;;;;5.65;2.20;;;22.70;52.20;;;;;;5029354;28;20074;-71
2023/09/25 12:09:10;;;;;;;4.85;1.92;;;22.50;52.50;;;;;;5028224;28;20030;-72
2023/09/25 12:11:40;;;;;;;6.35;2.17;;;22.50;52.70;;;;;;5029478;28;20018;-72
2023/09/25 12:14:06;;;;;;;4.88;1.88;;;22.40;52.90;;;;;;5023082;28;20053;-72
2023/09/25 12:16:35;;;;;;;5.65;1.98;;;22.50;53.10;;;;;;5034345;28;20043;-72
2023/09/25 12:19:01;;;;;;;5.13;1.90;;;22.50;53.60;;;;;;5033632;28;20116;-72
2023/09/25 12:21:26;;;;;;;5.45;1.73;;;22.50;53.10;;;;;;5050992;28;20037;-71
2023/09/25 12:23:52;;;;;;;7.30;2.78;;;22.50;53.40;;;;;;5035470;28;20033;-72
2023/09/25 12:26:18;;;;;;;5.35;2.05;;;22.40;53.50;;;;;;5035884;28;20026;-72
2023/09/25 12:28:43;;;;;;;6.55;2.10;;;22.30;53.80;;;;;;5033989;28;20308;-72
2023/09/25 12:31:10;;;;;;;5.50;2.22;;;22.20;54.10;;;;;;5035476;28;20033;-72
2023/09/25 12:33:35;;;;;;;4.75;2.10;;;22.20;54.40;;;;;;5034490;28;20111;-72
2023/09/25 12:36:03;;;;;;;5.63;2.20;;;22.30;54.70;;;;;;5035491;28;20033;-72
2023/09/25 12:38:28;;;;;;;5.60;2.20;;;22.30;54.60;;;;;;5051033;28;20335;-71
2023/09/25 12:40:54;;;;;;;5.47;2.20;;;22.30;54.50;;;;;;5033128;28;20053;-72
2023/09/25 12:43:20;;;;;;;6.28;2.35;;;22.30;54.20;;;;;;5050531;28;20111;-71
2023/09/25 12:45:45;;;;;;;5.75;2.08;;;22.20;54.20;;;;;;5035254;28;20025;-71
2023/09/25 12:48:11;;;;;;;7.18;2.42;;;22.30;54.50;;;;;;5034208;28;20021;-72
2023/09/25 12:50:37;;;;;;;6.72;2.22;;;22.20;54.50;;;;;;5033850;28;20026;-72